Time;durP1;ratioP1;P1;durP2;ratioP2;P2;SDS_P1;SDS_P2;PMS_P1;PMS_P2;Temp;Humidity;BMP_temperature;BMP_pressure;BME280_temperature;BME280_humidity;BME280_pressure;Samples;Min_cycle;Max_cycle;Signal;HPM_P1;HPM_P2
2022/04/22 00:00:05;;;;;;;0.50;0.50;;;;;;;5.48;86.89;99823.31;4771095;30;20109;-80
2022/04/22 00:02:33;;;;;;;0.50;0.50;;;;;;;5.48;86.92;99827.84;4772121;30;20051;-80
2022/04/22 00:05:00;;;;;;;0.50;0.50;;;;;;;5.43;87.10;99820.38;4771759;30;20109;-80
2022/04/22 00:07:29;;;;;;;0.50;0.50;;;;;;;5.40;87.20;99818.09;4771555;30;20066;-79
2022/04/22 00:09:57;;;;;;;0.50;0.50;;;;;;;5.39;87.33;99817.25;4771462;30;20167;-82
2022/04/22 00:12:24;;;;;;;0.50;0.50;;;;;;;5.39;87.14;99808.38;4766215;30;20146;-80
2022/04/22 00:14:51;;;;;;;0.50;0.50;;;;;;;5.36;87.47;99816.78;4765826;30;20579;-80
2022/04/22 00:17:19;;;;;;;0.50;0.50;;;;;;;5.36;87.45;99816.78;4768360;30;20169;-80
2022/04/22 00:19:46;;;;;;;0.50;0.50;;;;;;;5.40;87.20;99810.06;4770049;30;20137;-80
2022/04/22 00:22:13;;;;;;;0.40;0.40;;;;;;;5.42;87.10;99822.22;4767919;30;20052;-80
2022/04/22 00:24:40;;;;;;;0.50;0.50;;;;;;;5.46;87.02;99816.47;4771174;30;20062;-79
2022/04/22 00:27:07;;;;;;;0.50;0.50;;;;;;;5.49;86.96;99816.91;4771095;30;20067;-81
2022/04/22 00:29:34;;;;;;;0.50;0.50;;;;;;;5.53;86.99;99812.03;4770725;30;20663;-81
2022/04/22 00:32:02;;;;;;;0.50;0.50;;;;;;;5.54;86.81;99819.84;4771108;30;20060;-81
2022/04/22 00:34:29;;;;;;;0.52;0.52;;;;;;;5.52;86.92;99816.56;4771152;30;20519;-82
2022/04/22 00:36:56;;;;;;;0.60;0.60;;;;;;;5.55;86.68;99815.34;4769888;30;20083;-82
2022/04/22 00:39:24;;;;;;;0.50;0.50;;;;;;;5.54;86.75;99816.34;4769648;30;20060;-82
2022/04/22 00:41:51;;;;;;;0.50;0.50;;;;;;;5.51;86.56;99816.75;4771234;30;20052;-82
2022/04/22 00:44:18;;;;;;;0.50;0.50;;;;;;;5.47;86.70;99810.94;4771077;30;20440;-82
2022/04/22 00:46:45;;;;;;;0.45;0.45;;;;;;;5.47;86.82;99810.94;4771330;30;20055;-84
2022/04/22 00:49:12;;;;;;;0.50;0.50;;;;;;;5.45;87.05;99812.97;4771058;30;20056;-79
2022/04/22 00:51:39;;;;;;;0.50;0.50;;;;;;;5.48;86.96;99807.25;4784478;30;20133;-81
2022/04/22 00:54:07;;;;;;;0.50;0.50;;;;;;;5.53;87.07;99809.34;4771029;30;20059;-81
2022/04/22 00:56:34;;;;;;;0.50;0.50;;;;;;;5.58;86.96;99807.75;4770117;30;20513;-81
2022/04/22 00:59:02;;;;;;;0.50;0.50;;;;;;;5.62;87.03;99801.00;4771003;30;20540;-79
2022/04/22 01:01:30;;;;;;;0.50;0.50;;;;;;;5.63;86.89;99799.97;4770896;30;20094;-81
2022/04/22 01:09:48;;;;;;;0.50;0.50;;;;;;;5.51;87.14;99780.06;4784470;30;20067;-80
2022/04/22 01:12:16;;;;;;;0.50;0.50;;;;;;;5.57;86.89;99783.81;4769457;30;20055;-80
2022/04/22 01:14:44;;;;;;;0.50;0.50;;;;;;;5.60;86.75;99783.47;4770310;30;20066;-79
2022/04/22 01:17:11;;;;;;;0.50;0.50;;;;;;;5.61;86.88;99780.56;4770898;30;20150;-79
2022/04/22 01:19:39;;;;;;;0.50;0.50;;;;;;;5.63;86.67;99783.88;4770466;30;20094;-80
2022/04/22 01:22:07;;;;;;;0.50;0.50;;;;;;;5.63;86.99;99778.53;4770754;30;20052;-79
2022/04/22 01:24:35;;;;;;;0.50;0.50;;;;;;;5.62;86.73;99782.25;4784038;30;20048;-80
2022/04/22 01:27:03;;;;;;;0.50;0.50;;;;;;;5.60;87.16;99775.44;4770483;30;20051;-79
2022/04/22 01:29:32;;;;;;;0.50;0.50;;;;;;;5.61;87.04;99775.22;4770270;30;20129;-80
2022/04/22 01:32:00;;;;;;;0.50;0.50;;;;;;;5.59;86.89;99779.09;4770303;30;20138;-80
2022/04/22 01:34:28;;;;;;;0.50;0.50;;;;;;;5.58;87.18;99774.78;4770434;30;20064;-80
2022/04/22 01:36:55;;;;;;;0.50;0.50;;;;;;;5.53;87.30;99780.72;4768557;30;20060;-81
2022/04/22 01:39:23;;;;;;;0.50;0.50;;;;;;;5.55;87.08;99776.00;4768758;30;20051;-79
2022/04/22 01:41:51;;;;;;;0.60;0.60;;;;;;;5.53;87.44;99778.03;4768961;30;20146;-81
2022/04/22 01:44:18;;;;;;;0.50;0.50;;;;;;;5.57;87.40;99776.66;4783620;30;20055;-80
2022/04/22 01:46:45;;;;;;;0.50;0.50;;;;;;;5.56;87.35;99777.66;4769814;30;20048;-80
2022/04/22 01:49:12;;;;;;;0.50;0.50;;;;;;;5.55;87.57;99770.66;4773096;30;20067;-80
2022/04/22 01:51:39;;;;;;;0.50;0.50;;;;;;;5.55;87.30;99781.34;4795715;30;20091;-82
2022/04/22 01:54:06;;;;;;;0.40;0.40;;;;;;;5.56;87.36;99774.97;4768924;30;20556;-80
2022/04/22 01:56:34;;;;;;;0.50;0.50;;;;;;;5.54;87.39;99779.69;4769934;30;20142;-80
2022/04/22 01:59:01;;;;;;;0.50;0.50;;;;;;;5.54;87.51;99778.88;4769802;30;20052;-81
2022/04/22 02:01:29;;;;;;;0.50;0.50;;;;;;;5.53;87.40;99777.22;4770078;30;20061;-80
2022/04/22 02:03:57;;;;;;;0.50;0.50;;;;;;;5.52;87.61;99787.09;4769689;30;20397;-80
2022/04/22 02:06:24;;;;;;;0.50;0.50;;;;;;;5.56;87.67;99787.53;4769501;30;20059;-80
2022/04/22 02:08:51;;;;;;;0.50;0.50;;;;;;;5.59;87.53;99789.81;4753406;30;20083;-80
2022/04/22 02:11:18;;;;;;;0.50;0.50;;;;;;;5.56;87.48;99783.00;4769633;30;20155;-80
2022/04/22 02:13:45;;;;;;;0.50;0.50;;;;;;;5.54;87.58;99784.22;4769319;30;20048;-79
2022/04/22 02:16:12;;;;;;;0.50;0.50;;;;;;;5.53;87.73;99785.25;4769304;30;20055;-80
2022/04/22 02:18:42;;;;;;;0.50;0.50;;;;;;;5.53;87.71;99793.28;4782574;30;20060;-80
2022/04/22 02:21:10;;;;;;;0.50;0.50;;;;;;;5.56;87.66;99787.53;4782064;30;20055;-80
2022/04/22 02:23:40;;;;;;;0.50;0.50;;;;;;;5.53;87.54;99791.44;4769595;30;20126;-80
2022/04/22 02:26:07;;;;;;;0.50;0.50;;;;;;;5.52;87.49;99792.47;4769419;30;20477;-80
2022/04/22 02:28:35;;;;;;;0.50;0.50;;;;;;;5.51;87.50;99790.78;4769665;30;20055;-80
2022/04/22 02:31:09;;;;;;;0.50;0.50;;;;;;;5.54;87.73;99784.22;4769024;30;20067;-80
2022/04/22 02:33:37;;;;;;;;;;;;;;;5.55;87.81;99792.06;4768273;30;20056;-81
2022/04/22 02:36:06;;;;;;;0.50;0.50;;;;;;;5.51;87.76;99787.28;4769452;30;19979;-79
2022/04/22 02:38:33;;;;;;;0.50;0.50;;;;;;;5.57;87.87;99784.69;4769040;30;20048;-80
2022/04/22 02:46:33;;;;;;;0.55;0.55;;;;;;;5.70;87.55;99783.97;4769101;30;20085;-80
2022/04/22 02:49:00;;;;;;;0.50;0.50;;;;;;;5.72;87.57;99787.28;4769081;30;20419;-80
2022/04/22 02:51:27;;;;;;;0.55;0.55;;;;;;;5.73;87.37;99790.78;4768868;30;20056;-80
2022/04/22 02:53:55;;;;;;;0.50;0.50;;;;;;;5.76;87.38;99787.72;4768875;30;20530;-80
2022/04/22 02:56:22;;;;;;;0.50;0.50;;;;;;;5.77;87.39;99784.00;4768756;30;20052;-80
2022/04/22 02:58:50;;;;;;;0.50;0.50;;;;;;;5.83;87.35;99785.91;4768687;30;20055;-81
2022/04/22 03:01:17;;;;;;;0.50;0.50;;;;;;;5.84;87.16;99784.88;4769038;30;20504;-80
2022/04/22 03:03:44;;;;;;;0.50;0.50;;;;;;;5.77;87.05;99794.72;4768282;30;20112;-81
2022/04/22 03:06:12;;;;;;;0.50;0.50;;;;;;;5.78;87.23;99788.34;4768642;30;20067;-81
2022/04/22 03:08:39;;;;;;;0.50;0.50;;;;;;;5.80;87.04;99781.78;4768434;30;20104;-81
2022/04/22 03:11:06;;;;;;;0.50;0.50;;;;;;;5.87;87.15;99784.47;4767055;30;20051;-81
2022/04/22 03:13:33;;;;;;;0.50;0.50;;;;;;;5.86;86.81;99793.56;4768384;30;20056;-80
2022/04/22 03:16:02;;;;;;;0.50;0.50;;;;;;;5.83;86.97;99791.28;4768119;30;20473;-80
2022/04/22 03:18:29;;;;;;;0.50;0.50;;;;;;;5.80;87.24;99789.81;4771139;30;20528;-81
2022/04/22 03:20:57;;;;;;;0.50;0.50;;;;;;;5.82;87.17;99793.13;4787507;29;20428;-80
2022/04/22 03:23:24;;;;;;;0.60;0.60;;;;;;;5.82;87.37;99792.28;4778779;30;20419;-79
2022/04/22 03:25:54;;;;;;;0.45;0.45;;;;;;;5.82;87.40;99790.44;4798220;29;20425;-81
2022/04/22 03:28:23;;;;;;;0.50;0.50;;;;;;;5.81;87.18;99786.09;4767004;30;20047;-81
2022/04/22 03:30:50;;;;;;;0.50;0.50;;;;;;;5.84;87.17;99795.59;4771973;30;20065;-80
2022/04/22 03:33:19;;;;;;;0.50;0.50;;;;;;;5.85;87.30;99800.78;4778120;29;20060;-80
2022/04/22 03:35:50;;;;;;;0.50;0.50;;;;;;;5.89;87.28;99793.16;4774395;30;20427;-84
2022/04/22 03:38:21;;;;;;;0.50;0.50;;;;;;;5.92;87.13;99791.94;4788817;30;20051;-80
2022/04/22 03:40:49;;;;;;;0.40;0.40;;;;;;;5.97;87.04;99790.34;4776289;30;20051;-83
2022/04/22 03:43:17;;;;;;;0.50;0.50;;;;;;;5.98;86.99;99799.25;4777167;30;20055;-84
2022/04/22 03:45:44;;;;;;;0.50;0.50;;;;;;;5.98;87.00;99796.56;4777411;30;20139;-82
2022/04/22 03:48:13;;;;;;;0.50;0.50;;;;;;;6.01;87.01;99794.31;4774442;30;20611;-81
2022/04/22 03:50:41;;;;;;;0.50;0.50;;;;;;;6.04;87.10;99793.91;4773947;30;20085;-80
2022/04/22 03:53:12;;;;;;;0.47;0.47;;;;;;;6.07;87.18;99796.19;4774296;30;20051;-81
2022/04/22 03:55:46;;;;;;;0.50;0.50;;;;;;;6.12;87.11;99784.06;4647007;29;10001440;-80
2022/04/22 03:58:16;;;;;;;0.50;0.50;;;;;;;6.15;86.97;99797.91;4770895;30;20506;-80
2022/04/22 04:00:48;;;;;;;0.40;0.40;;;;;;;6.16;86.94;99793.38;4770901;30;20380;-80
2022/04/22 04:03:19;;;;;;;0.50;0.50;;;;;;;6.14;86.91;99795.44;4773130;30;20075;-78
2022/04/22 04:05:51;;;;;;;0.40;0.40;;;;;;;6.08;86.88;99792.50;4772051;30;20140;-80
2022/04/22 04:08:24;;;;;;;0.50;0.50;;;;;;;6.06;87.12;99802.59;4769855;30;20048;-81
2022/04/22 04:16:22;;;;;;;0.50;0.50;;;;;;;6.07;87.16;99796.19;4770308;30;20051;-78
2022/04/22 04:18:49;;;;;;;0.43;0.43;;;;;;;6.08;87.22;99799.72;4774750;30;20539;-80
2022/04/22 04:24:03;;;;;;;0.50;0.50;;;;;;;6.08;87.09;99792.50;4787846;29;20133;-80
2022/04/22 04:26:30;;;;;;;0.50;0.50;;;;;;;6.09;87.01;99790.66;4790177;30;20159;-79
2022/04/22 04:28:57;;;;;;;0.50;0.50;;;;;;;6.07;86.99;99785.47;4789933;29;20089;-80
2022/04/22 04:31:24;;;;;;;0.50;0.50;;;;;;;6.08;87.09;99787.16;4788172;29;20126;-80
2022/04/22 04:33:51;;;;;;;0.50;0.50;;;;;;;6.08;86.88;99791.69;4788225;29;20393;-79
2022/04/22 04:36:19;;;;;;;0.40;0.40;;;;;;;6.06;86.84;99791.06;4788459;29;20075;-80
2022/04/22 04:38:46;;;;;;;0.50;0.50;;;;;;;6.10;86.75;99786.94;4787861;29;20056;-80
2022/04/22 04:41:13;;;;;;;0.50;0.50;;;;;;;6.18;86.93;99791.31;4788087;29;20116;-79
2022/04/22 04:43:41;;;;;;;0.50;0.50;;;;;;;6.23;86.61;99780.84;4788175;29;20142;-81
2022/04/22 04:46:09;;;;;;;0.43;0.43;;;;;;;6.32;86.21;99792.25;4786356;30;20149;-80
2022/04/22 04:48:37;;;;;;;0.50;0.50;;;;;;;6.32;86.10;99797.59;4787154;29;20100;-81
2022/04/22 04:51:06;;;;;;;0.50;0.50;;;;;;;6.34;85.79;99796.38;4787983;30;20154;-81
2022/04/22 04:53:33;;;;;;;0.50;0.50;;;;;;;6.37;85.71;99785.25;4787688;29;20051;-80
2022/04/22 04:56:00;;;;;;;0.50;0.50;;;;;;;6.39;85.03;99788.56;4786654;30;20090;-80
2022/04/22 04:58:28;;;;;;;0.50;0.50;;;;;;;6.49;84.88;99789.03;4786487;30;20059;-80
2022/04/22 05:00:55;;;;;;;0.50;0.50;;;;;;;6.61;84.53;99791.13;4786793;30;20218;-81
2022/04/22 05:03:22;;;;;;;0.50;0.50;;;;;;;6.67;84.07;99790.34;4788184;29;20614;-81
2022/04/22 05:05:50;;;;;;;0.50;0.50;;;;;;;6.65;83.83;99787.84;4801658;29;20063;-80
2022/04/22 05:08:17;;;;;;;0.55;0.55;;;;;;;6.72;83.75;99788.72;4787801;29;20569;-80
2022/04/22 05:10:44;;;;;;;0.50;0.50;;;;;;;6.72;83.40;99793.25;4780928;29;20101;-80
2022/04/22 05:13:11;;;;;;;0.50;0.50;;;;;;;6.75;83.41;99787.50;4433041;29;9999980;-79
2022/04/22 05:15:39;;;;;;;0.50;0.50;;;;;;;6.73;83.36;99785.03;4762655;30;20051;-79
2022/04/22 05:18:06;;;;;;;0.50;0.50;;;;;;;6.84;82.81;99794.34;4766102;30;20052;-80
2022/04/22 05:20:34;;;;;;;0.50;0.50;;;;;;;6.82;82.76;99788.34;4765027;30;20060;-79
2022/04/22 05:23:02;;;;;;;0.50;0.50;;;;;;;6.83;82.32;99786.50;4775259;29;20059;-79
2022/04/22 05:25:29;;;;;;;0.50;0.50;;;;;;;6.87;82.26;99796.63;4765086;30;20047;-81
2022/04/22 05:27:57;;;;;;;0.50;0.50;;;;;;;6.87;82.09;99796.63;4764202;30;20067;-80
2022/04/22 05:33:10;;;;;;;0.50;0.50;;;;;;;6.70;82.40;99795.31;4759073;30;20465;-81
2022/04/22 05:35:38;;;;;;;0.60;0.60;;;;;;;6.69;82.72;99793.66;4767151;30;20056;-79
2022/04/22 05:38:06;;;;;;;0.50;0.50;;;;;;;6.72;82.88;99794.09;4766069;30;20056;-82
2022/04/22 05:40:38;;;;;;;0.50;0.50;;;;;;;6.81;82.47;99800.13;4779159;30;20043;-79
2022/04/22 05:43:06;;;;;;;0.50;0.50;;;;;;;6.82;82.19;99793.72;4766236;30;20055;-80
2022/04/22 05:45:35;;;;;;;0.50;0.50;;;;;;;6.88;82.20;99792.06;4765917;30;20060;-81
2022/04/22 05:48:02;;;;;;;0.50;0.50;;;;;;;6.95;81.75;99787.56;4765284;30;20516;-81
2022/04/22 05:50:29;;;;;;;0.50;0.50;;;;;;;7.04;81.68;99791.72;4758443;30;20129;-80
2022/04/22 05:52:57;;;;;;;0.50;0.50;;;;;;;7.15;81.20;99784.94;4765740;30;20060;-81
2022/04/22 05:55:27;;;;;;;0.50;0.50;;;;;;;7.27;80.64;99795.91;4779526;30;20139;-81
2022/04/22 05:57:55;;;;;;;0.60;0.60;;;;;;;7.43;80.07;99790.16;4764802;30;20052;-81
2022/04/22 06:00:25;;;;;;;0.60;0.60;;;;;;;7.65;79.35;99788.09;4765162;30;20085;-79
2022/04/22 06:02:53;;;;;;;0.60;0.60;;;;;;;7.82;79.04;99794.72;4760980;30;20089;-80
2022/04/22 06:05:23;;;;;;;0.50;0.50;;;;;;;7.99;78.54;99791.59;4766074;30;20052;-80
2022/04/22 06:10:37;;;;;;;0.50;0.50;;;;;;;8.10;76.93;99782.91;4765827;30;20567;-80
2022/04/22 06:13:16;;;;;;;0.50;0.50;;;;;;;8.17;76.50;99791.78;4739630;30;20136;-80
2022/04/22 06:15:43;;;;;;;0.60;0.60;;;;;;;8.21;76.15;99794.88;4765004;30;20169;-80
2022/04/22 06:18:11;;;;;;;0.50;0.50;;;;;;;8.17;75.36;99780.19;4767221;30;20863;-82
2022/04/22 06:20:38;;;;;;;0.60;0.60;;;;;;;8.18;75.26;99792.63;4768134;30;20058;-80
2022/04/22 06:23:06;;;;;;;0.60;0.60;;;;;;;8.29;74.28;99785.75;4763036;30;20056;-80
2022/04/22 06:25:35;;;;;;;0.50;0.50;;;;;;;8.30;74.00;99784.72;4765360;30;20055;-80
2022/04/22 06:28:05;;;;;;;0.60;0.60;;;;;;;8.40;72.60;99780.56;4764372;30;20066;-80
2022/04/22 06:30:33;;;;;;;0.60;0.60;;;;;;;8.50;72.71;99790.09;4774609;30;20121;-80
2022/04/22 06:33:05;;;;;;;0.60;0.60;;;;;;;8.54;72.43;99781.38;4778238;30;20164;-81
2022/04/22 06:35:33;;;;;;;0.60;0.60;;;;;;;8.73;71.72;99778.81;4772130;30;20524;-80
2022/04/22 06:38:06;;;;;;;0.50;0.50;;;;;;;8.89;70.94;99771.09;4742990;30;20964;-81
2022/04/22 06:46:04;;;;;;;0.50;0.50;;;;;;;9.35;68.78;99771.03;4765246;30;20562;-80
2022/04/22 06:48:35;;;;;;;0.50;0.50;;;;;;;9.49;68.35;99772.56;4765028;30;20052;-80
2022/04/22 06:51:11;;;;;;;0.50;0.50;;;;;;;9.51;67.53;99776.69;4764157;30;20062;-80
2022/04/22 06:53:39;;;;;;;0.50;0.50;;;;;;;9.55;67.33;99777.09;4762270;30;20048;-81
2022/04/22 06:56:07;;;;;;;0.50;0.50;;;;;;;9.51;67.24;99770.50;4747339;30;20059;-81
2022/04/22 06:58:40;;;;;;;0.50;0.50;;;;;;;9.48;66.97;99776.31;4747583;30;20135;-80
2022/04/22 07:01:08;;;;;;;0.50;0.50;;;;;;;9.41;66.75;99772.84;4747903;30;20060;-80
2022/04/22 07:03:57;;;;;;;0.50;0.50;;;;;;;9.32;67.24;99769.59;4778952;30;20055;-81
2022/04/22 07:06:25;;;;;;;0.50;0.50;;;;;;;9.29;67.38;99775.41;4765227;30;20124;-81
2022/04/22 07:08:52;;;;;;;0.50;0.50;;;;;;;9.34;67.66;99780.97;4765640;30;20146;-82
2022/04/22 07:11:25;;;;;;;0.50;0.50;;;;;;;9.42;67.47;99777.19;4763533;30;20146;-80
2022/04/22 07:14:02;;;;;;;0.50;0.50;;;;;;;9.49;67.12;99778.78;4432293;30;10001338;-81
2022/04/22 07:16:29;;;;;;;0.50;0.50;;;;;;;9.60;67.30;99768.38;4746674;30;20059;-80
2022/04/22 07:18:57;;;;;;;0.40;0.40;;;;;;;9.54;67.15;99768.22;4745793;30;20048;-79
2022/04/22 07:21:25;;;;;;;0.50;0.50;;;;;;;9.45;67.25;99774.91;4754059;30;20052;-80
2022/04/22 07:23:57;;;;;;;0.50;0.50;;;;;;;9.48;67.11;99771.75;4761552;30;20064;-81
2022/04/22 07:26:26;;;;;;;0.50;0.50;;;;;;;9.54;67.18;99768.22;4773896;30;20066;-80
2022/04/22 07:28:56;;;;;;;0.50;0.50;;;;;;;9.57;67.28;99772.31;4762457;30;20410;-80
2022/04/22 07:31:28;;;;;;;0.50;0.50;;;;;;;9.57;67.16;99779.56;4760773;30;20431;-80
2022/04/22 07:33:55;;;;;;;0.50;0.50;;;;;;;9.48;67.27;99776.31;4771593;30;20051;-80
2022/04/22 07:36:22;;;;;;;0.40;0.40;;;;;;;9.30;67.21;99771.69;4764314;30;20052;-80
2022/04/22 07:38:50;;;;;;;0.50;0.50;;;;;;;9.09;67.86;99767.47;4775894;29;20136;-78
2022/04/22 07:41:18;;;;;;;0.47;0.47;;;;;;;9.01;68.00;99775.78;4763277;30;20064;-79
2022/04/22 07:46:48;;;;;;;0.40;0.40;;;;;;;8.89;68.08;99762.19;4760890;30;20522;-80
2022/04/22 07:49:16;;;;;;;0.50;0.50;;;;;;;8.90;68.27;99763.84;4762062;30;20521;-80
2022/04/22 07:51:44;;;;;;;0.45;0.45;;;;;;;8.86;68.29;99774.22;4761076;30;20051;-80
2022/04/22 07:54:12;;;;;;;0.50;0.50;;;;;;;8.82;68.24;99769.47;4761683;30;20945;-81
2022/04/22 07:56:41;;;;;;;0.50;0.50;;;;;;;8.82;68.48;99769.47;4763444;30;20517;-80
2022/04/22 07:59:10;;;;;;;0.50;0.50;;;;;;;8.84;68.56;99762.84;4420268;29;10000602;-81
2022/04/22 08:01:37;;;;;;;0.50;0.50;;;;;;;9.00;68.12;99766.88;4763931;30;20480;-81
2022/04/22 08:04:05;;;;;;;0.50;0.50;;;;;;;9.19;67.47;99764.28;4763333;30;20074;-80
2022/04/22 08:06:33;;;;;;;0.50;0.50;;;;;;;9.35;67.18;99762.97;4759023;30;20055;-81
2022/04/22 08:09:00;;;;;;;0.50;0.50;;;;;;;9.55;66.71;99759.06;4768051;30;20058;-82
2022/04/22 08:11:28;;;;;;;0.60;0.60;;;;;;;9.72;65.94;99761.19;4770775;30;20513;-82
2022/04/22 08:13:56;;;;;;;0.50;0.50;;;;;;;9.82;65.62;99758.81;4785079;30;20051;-81
2022/04/22 08:16:23;;;;;;;0.50;0.50;;;;;;;9.80;65.68;99752.00;4771221;30;20051;-82
2022/04/22 08:18:50;;;;;;;0.50;0.50;;;;;;;9.81;65.68;99749.09;4771405;30;20142;-82
2022/04/22 08:21:17;;;;;;;0.50;0.50;;;;;;;9.82;65.87;99756.13;4770858;30;20138;-81
2022/04/22 08:23:46;;;;;;;0.50;0.50;;;;;;;9.83;65.68;99755.09;4770472;30;20071;-82
2022/04/22 08:26:14;;;;;;;0.50;0.50;;;;;;;9.88;65.62;99760.66;4784413;30;20420;-82
2022/04/22 08:28:41;;;;;;;0.50;0.50;;;;;;;9.88;65.71;99755.25;4770989;30;20067;-82
2022/04/22 08:31:08;;;;;;;0.40;0.40;;;;;;;9.79;65.93;99750.38;4770777;30;20116;-81
2022/04/22 08:33:35;;;;;;;0.50;0.50;;;;;;;9.61;66.33;99751.16;4790810;30;20097;-81
2022/04/22 08:36:02;;;;;;;0.50;0.50;;;;;;;9.59;66.76;99745.97;4773979;30;20079;-82
2022/04/22 08:38:29;;;;;;;0.50;0.50;;;;;;;9.61;66.79;99751.97;4784452;30;20116;-82
2022/04/22 08:40:57;;;;;;;0.50;0.50;;;;;;;9.47;67.11;99745.88;4770368;30;20060;-83
2022/04/22 08:43:24;;;;;;;0.40;0.40;;;;;;;9.46;67.48;99746.06;4768825;30;20063;-80
2022/04/22 08:45:51;;;;;;;0.50;0.50;;;;;;;9.49;66.88;99735.66;4769368;30;20052;-82
2022/04/22 08:51:05;;;;;;;0.50;0.50;;;;;;;9.74;66.01;99742.94;4770593;30;20059;-81
2022/04/22 08:53:33;;;;;;;0.50;0.50;;;;;;;9.74;65.81;99742.94;4768891;30;20546;-82
2022/04/22 08:56:02;;;;;;;0.43;0.43;;;;;;;9.87;65.30;99737.41;4770292;30;20083;-82
2022/04/22 08:58:29;;;;;;;0.50;0.50;;;;;;;9.96;64.60;99736.09;4771344;30;20072;-82
2022/04/22 09:01:00;;;;;;;0.50;0.50;;;;;;;10.07;64.52;99731.81;4770395;30;20056;-81
2022/04/22 09:03:28;;;;;;;0.40;0.40;;;;;;;10.27;64.30;99736.19;4769695;30;20487;-83
2022/04/22 09:06:02;;;;;;;0.50;0.50;;;;;;;10.35;63.41;99736.75;4769467;30;20143;-83
2022/04/22 09:08:29;;;;;;;0.43;0.43;;;;;;;10.36;63.53;99734.88;4783505;30;20064;-82
2022/04/22 09:10:57;;;;;;;0.50;0.50;;;;;;;10.40;63.30;99725.28;4769502;30;20083;-82
2022/04/22 09:13:31;;;;;;;0.50;0.50;;;;;;;10.37;62.85;99726.56;4769764;30;20085;-83
2022/04/22 09:15:59;;;;;;;0.50;0.50;;;;;;;10.47;62.46;99722.50;4767483;30;20071;-81
2022/04/22 09:18:37;;;;;;;0.50;0.50;;;;;;;10.79;61.54;99721.25;4770237;30;20432;-82
2022/04/22 09:21:07;;;;;;;0.50;0.50;;;;;;;11.07;60.54;99717.13;4770236;30;20138;-83
2022/04/22 09:23:36;;;;;;;0.50;0.50;;;;;;;11.30;59.59;99718.25;4771032;30;20162;-82
2022/04/22 09:26:04;;;;;;;0.50;0.50;;;;;;;11.40;59.38;99710.41;4770286;30;20059;-82
2022/04/22 09:28:32;;;;;;;0.50;0.50;;;;;;;11.35;59.09;99715.69;4770407;30;20055;-82
2022/04/22 09:31:01;;;;;;;0.50;0.50;;;;;;;11.40;59.12;99705.81;4769809;30;20064;-82
2022/04/22 09:33:44;;;;;;;0.50;0.50;;;;;;;11.42;58.60;99705.56;4770043;30;20087;-82
2022/04/22 09:44:59;;;;;;;0.50;0.50;;;;;;;11.29;58.65;99703.91;4771803;30;20055;-82
2022/04/22 09:47:29;;;;;;;0.50;0.50;;;;;;;11.46;58.47;99693.25;4769873;30;20500;-83
2022/04/22 09:49:57;;;;;;;0.50;0.50;;;;;;;11.63;57.88;99699.59;4772964;30;20067;-83
2022/04/22 09:52:31;;;;;;;0.47;0.47;;;;;;;11.76;56.93;99695.03;4779113;30;20582;-82
2022/04/22 09:55:04;;;;;;;0.50;0.50;;;;;;;11.80;57.25;99699.75;4778989;30;20063;-82
2022/04/22 09:57:57;;;;;;;0.60;0.60;;;;;;;11.97;56.55;99696.34;4779551;30;20068;-82
2022/04/22 10:00:30;;;;;;;0.50;0.50;;;;;;;12.40;55.74;99695.91;4778811;30;20420;-82
2022/04/22 10:02:58;;;;;;;0.50;0.50;;;;;;;12.71;54.97;99686.50;4774824;30;20051;-81
2022/04/22 10:05:27;;;;;;;0.40;0.40;;;;;;;12.87;54.77;99684.09;4792447;30;20051;-81
2022/04/22 10:07:56;;;;;;;0.40;0.40;;;;;;;12.80;54.37;99681.53;4778187;30;20628;-82
2022/04/22 10:10:31;;;;;;;0.40;0.40;;;;;;;12.39;55.07;99683.44;4763997;30;20063;-82
2022/04/22 10:13:01;;;;;;;0.40;0.40;;;;;;;12.38;55.55;99684.47;4779183;30;20186;-82
2022/04/22 10:15:30;;;;;;;0.40;0.40;;;;;;;12.32;55.66;99688.16;4770971;30;20060;-83
2022/04/22 10:17:57;;;;;;;0.40;0.40;;;;;;;12.13;56.30;99688.31;4767636;30;20055;-82
2022/04/22 10:20:25;;;;;;;0.40;0.40;;;;;;;11.85;57.16;99680.06;4778512;30;20067;-83
2022/04/22 10:22:52;;;;;;;0.40;0.40;;;;;;;11.68;57.66;99688.09;4772091;30;20176;-83
2022/04/22 10:25:20;;;;;;;0.40;0.40;;;;;;;11.49;58.12;99684.66;4762405;30;20420;-83
2022/04/22 10:27:48;;;;;;;0.40;0.40;;;;;;;11.32;58.78;99678.28;4763792;30;20055;-82
2022/04/22 10:30:15;;;;;;;0.40;0.40;;;;;;;11.24;58.92;99682.16;4764398;30;20060;-83
2022/04/22 10:32:45;;;;;;;0.40;0.40;;;;;;;11.21;58.98;99683.44;4779042;30;20064;-83
2022/04/22 10:35:13;;;;;;;0.40;0.40;;;;;;;11.29;58.72;99679.56;4762260;30;20432;-83
2022/04/22 10:37:43;;;;;;;0.40;0.40;;;;;;;11.31;58.63;99682.06;4763223;30;20498;-84
2022/04/22 10:40:18;;;;;;;0.40;0.40;;;;;;;11.18;59.20;99683.91;4778808;30;20056;-82
2022/04/22 10:42:47;;;;;;;0.40;0.40;;;;;;;11.14;59.17;99685.44;4769400;30;20055;-83
2022/04/22 10:47:59;;;;;;;0.40;0.40;;;;;;;11.04;59.74;99677.09;4765101;30;20551;-84
2022/04/22 10:50:42;;;;;;;0.40;0.40;;;;;;;11.01;59.73;99677.53;4764925;30;20061;-84
2022/04/22 10:53:23;;;;;;;0.40;0.40;;;;;;;11.00;59.76;99678.59;4763471;30;20070;-85
2022/04/22 10:55:50;;;;;;;0.40;0.40;;;;;;;10.89;60.20;99690.16;4765875;30;20121;-84
2022/04/22 10:58:38;;;;;;;0.40;0.40;;;;;;;10.88;60.32;99683.94;4762781;30;20401;-83
2022/04/22 11:01:05;;;;;;;0.40;0.40;;;;;;;10.83;60.07;99671.13;4782145;30;20052;-83
2022/04/22 11:03:36;;;;;;;0.40;0.40;;;;;;;10.97;60.23;99679.06;4781766;30;20059;-83
2022/04/22 11:06:07;;;;;;;0.40;0.40;;;;;;;10.97;60.05;99677.19;4767988;30;20129;-84
2022/04/22 11:08:38;;;;;;;0.40;0.40;;;;;;;10.88;60.27;99681.25;4782091;30;20055;-84
2022/04/22 11:11:11;;;;;;;0.40;0.40;;;;;;;10.78;60.16;99679.09;4767357;30;20062;-83
2022/04/22 11:13:38;;;;;;;0.40;0.40;;;;;;;10.75;60.15;99679.56;4762687;30;20063;-84
2022/04/22 11:16:26;;;;;;;0.40;0.40;;;;;;;10.68;60.66;99673.44;4764066;30;20074;-84
2022/04/22 11:19:33;;;;;;;0.40;0.40;;;;;;;10.56;61.13;99672.59;4761927;30;20397;-84
2022/04/22 11:22:05;;;;;;;0.40;0.40;;;;;;;10.51;61.02;99673.25;4768259;30;20648;-83
2022/04/22 11:24:33;;;;;;;0.40;0.40;;;;;;;10.61;60.94;99672.72;4781590;30;20063;-83
2022/04/22 11:27:10;;;;;;;0.40;0.40;;;;;;;10.72;60.42;99663.00;4765165;30;20544;-82
2022/04/22 11:29:39;;;;;;;0.40;0.40;;;;;;;10.66;60.22;99658.50;4766739;30;20382;-84
2022/04/22 11:32:12;;;;;;;0.40;0.40;;;;;;;10.58;60.14;99659.66;4767813;30;20062;-83
2022/04/22 11:35:15;;;;;;;0.47;0.47;;;;;;;10.47;60.67;99663.13;4768108;30;20516;-83
2022/04/22 11:37:43;;;;;;;0.50;0.50;;;;;;;10.40;61.16;99658.63;4750749;30;20125;-83
2022/04/22 11:40:18;;;;;;;0.40;0.40;;;;;;;10.53;61.00;99656.81;4770111;30;20504;-83
2022/04/22 11:42:46;;;;;;;0.40;0.40;;;;;;;10.65;60.57;99646.91;4771828;30;20060;-83
2022/04/22 11:45:14;;;;;;;0.40;0.40;;;;;;;10.70;60.42;99641.63;4771543;30;20055;-83
2022/04/22 11:47:42;;;;;;;0.40;0.40;;;;;;;10.75;60.20;99647.16;4764994;30;20545;-81
2022/04/22 11:50:10;;;;;;;0.40;0.40;;;;;;;10.71;60.02;99646.00;4753988;30;20052;-84
2022/04/22 11:52:37;;;;;;;0.40;0.40;;;;;;;10.61;60.40;99643.84;4752372;30;20117;-84
2022/04/22 11:55:06;;;;;;;0.50;0.50;;;;;;;10.61;60.69;99645.72;4753492;30;20117;-84
2022/04/22 11:57:38;;;;;;;0.40;0.40;;;;;;;10.68;60.53;99646.44;4755626;30;20507;-84
2022/04/22 12:05:50;;;;;;;0.40;0.40;;;;;;;10.74;60.22;99639.31;4777797;30;20048;-83
2022/04/22 12:08:18;;;;;;;0.40;0.40;;;;;;;10.67;60.02;99630.47;4771718;30;20125;-83
2022/04/22 12:10:53;;;;;;;0.50;0.50;;;;;;;10.72;60.15;99626.03;4753851;30;20056;-83
2022/04/22 12:13:20;;;;;;;0.40;0.40;;;;;;;10.77;59.93;99618.06;4770226;30;20067;-83
2022/04/22 12:15:49;;;;;;;0.50;0.50;;;;;;;10.70;60.07;99628.13;4771163;30;20051;-81
2022/04/22 12:18:32;;;;;;;0.40;0.40;;;;;;;10.68;60.22;99627.53;4770807;30;20059;-83
2022/04/22 12:21:00;;;;;;;0.40;0.40;;;;;;;10.78;60.17;99619.69;4769464;30;20048;-83
2022/04/22 12:23:41;;;;;;;0.40;0.40;;;;;;;10.77;59.76;99626.16;4770059;30;20409;-83
2022/04/22 12:26:18;;;;;;;0.40;0.40;;;;;;;10.57;60.08;99622.94;4770907;30;20059;-83
2022/04/22 12:29:11;;;;;;;0.40;0.40;;;;;;;10.53;60.12;99621.72;4769923;30;20101;-82
2022/04/22 12:31:50;;;;;;;0.40;0.40;;;;;;;10.53;60.33;99627.13;4766981;30;20067;-82
2022/04/22 12:34:36;;;;;;;0.40;0.40;;;;;;;10.61;60.12;99618.72;4769829;30;20072;-83
2022/04/22 12:37:07;;;;;;;0.40;0.40;;;;;;;10.60;60.22;99617.88;4768638;30;20477;-82
2022/04/22 12:39:39;;;;;;;0.50;0.50;;;;;;;10.77;59.96;99615.38;4438946;29;10000569;-82
2022/04/22 12:42:17;;;;;;;0.40;0.40;;;;;;;11.01;59.55;99620.81;4765557;30;20154;-83